Time;durP1;ratioP1;P1;durP2;ratioP2;P2;SDS_P1;SDS_P2;PMS_P1;PMS_P2;Temp;Humidity;BMP_temperature;BMP_pressure;BME280_temperature;BME280_humidity;BME280_pressure;Samples;Min_cycle;Max_cycle;Signal;HPM_P1;HPM_P2
2022/11/12 00:01:22;;;;;;;62.53;36.92;;;7.50;68.80;;;;;;5995696;23;117095;-81
2022/11/12 00:04:08;;;;;;;56.55;33.13;;;7.50;68.80;;;;;;5996846;23;114375;-81
2022/11/12 00:06:53;;;;;;;66.82;36.33;;;7.50;69.00;;;;;;5975055;23;114418;-81
2022/11/12 00:09:39;;;;;;;63.75;33.80;;;7.40;68.70;;;;;;5994744;23;114900;-81
2022/11/12 00:12:24;;;;;;;73.32;34.35;;;7.40;68.80;;;;;;5974203;23;114808;-81
2022/11/12 00:15:10;;;;;;;75.25;35.33;;;7.40;68.90;;;;;;5996229;23;114145;-81
2022/11/12 00:17:56;;;;;;;68.18;32.63;;;7.30;68.90;;;;;;5975439;23;114399;-81
2022/11/12 00:20:41;;;;;;;73.55;36.58;;;7.30;69.00;;;;;;5994252;23;114879;-81
2022/11/12 00:23:27;;;;;;;66.82;33.45;;;7.30;69.00;;;;;;5994337;23;114559;-81
2022/11/12 00:26:12;;;;;;;71.03;32.95;;;7.30;68.90;;;;;;5995849;23;114309;-81
2022/11/12 00:28:58;;;;;;;63.42;31.63;;;7.30;68.90;;;;;;5974618;23;114266;-81
2022/11/12 00:31:43;;;;;;;61.50;30.75;;;7.30;69.00;;;;;;5994941;23;115053;-81
2022/11/12 00:34:29;;;;;;;62.83;30.63;;;7.30;69.10;;;;;;5973230;23;115104;-81
2022/11/12 00:37:15;;;;;;;65.30;33.15;;;7.30;69.20;;;;;;5996173;23;114126;-81
2022/11/12 00:40:00;;;;;;;64.40;32.13;;;7.30;69.00;;;;;;5975110;23;114197;-82
2022/11/12 00:42:46;;;;;;;56.95;30.08;;;7.30;69.10;;;;;;5973376;23;116193;-81
2022/11/12 00:45:32;;;;;;;53.40;28.75;;;7.30;69.10;;;;;;5994917;23;115059;-81
2022/11/12 00:48:17;;;;;;;58.15;29.85;;;7.30;69.10;;;;;;5995519;23;114567;-81
2022/11/12 00:51:05;;;;;;;55.03;29.92;;;7.30;69.00;;;;;;5996190;23;114325;-82
2022/11/12 00:53:50;;;;;;;51.63;29.83;;;7.20;69.00;;;;;;5973851;23;114909;-81
2022/11/12 00:56:36;;;;;;;52.53;28.23;;;7.20;69.00;;;;;;5994185;23;115515;-80
2022/11/12 00:59:23;;;;;;;56.72;31.25;;;7.20;69.20;;;;;;5974438;23;114173;-80
2022/11/12 01:02:09;;;;;;;56.17;32.45;;;7.20;69.20;;;;;;6003926;23;114173;-81
2022/11/12 01:04:54;;;;;;;54.08;33.22;;;7.20;69.10;;;;;;5996043;23;117399;-81
2022/11/12 01:07:40;;;;;;;62.60;38.60;;;7.20;69.10;;;;;;5974447;23;115212;-81
2022/11/12 01:13:57;;;;;;;68.43;44.00;;;7.10;69.20;;;;;;5996078;23;114366;-81
2022/11/12 01:16:43;;;;;;;76.60;45.70;;;7.10;69.40;;;;;;5973243;23;114925;-81
2022/11/12 01:19:28;;;;;;;71.05;43.90;;;7.10;69.30;;;;;;5973232;23;117352;-81
2022/11/12 01:22:14;;;;;;;67.90;44.08;;;7.10;69.20;;;;;;5975170;23;114145;-81
2022/11/12 01:25:00;;;;;;;67.10;39.95;;;7.10;69.10;;;;;;5996253;23;114194;-81
2022/11/12 01:27:45;;;;;;;61.05;38.03;;;7.10;69.40;;;;;;5949393;23;117303;-81
2022/11/12 01:30:31;;;;;;;57.50;35.03;;;7.10;69.30;;;;;;5994902;23;114676;-81
2022/11/12 01:33:16;;;;;;;58.38;35.05;;;7.10;69.40;;;;;;5995847;23;114261;-82
2022/11/12 01:36:01;;;;;;;62.25;36.35;;;7.00;69.40;;;;;;5996794;23;114339;-82
2022/11/12 01:38:47;;;;;;;46.58;28.77;;;7.00;69.30;;;;;;5974440;23;114368;-81
2022/11/12 01:41:34;;;;;;;53.83;32.13;;;7.10;69.20;;;;;;5974949;23;114599;-81
2022/11/12 01:44:21;;;;;;;46.53;27.35;;;7.00;69.10;;;;;;5975799;23;114467;-81
2022/11/12 01:47:10;;;;;;;46.97;29.15;;;7.00;69.30;;;;;;5976582;23;114030;-81
2022/11/12 01:49:58;;;;;;;48.38;28.95;;;7.00;69.40;;;;;;5996314;23;114949;-82
2022/11/12 01:52:50;;;;;;;44.30;27.77;;;6.90;69.40;;;;;;5974527;23;114778;-82
2022/11/12 01:55:36;;;;;;;46.80;28.48;;;7.00;69.30;;;;;;5976388;23;114515;-81
2022/11/12 01:58:23;;;;;;;42.53;25.10;;;6.90;69.40;;;;;;5975383;23;114148;-82
2022/11/12 02:01:09;;;;;;;42.53;26.27;;;6.90;69.70;;;;;;5974854;23;115574;-81
2022/11/12 02:03:55;;;;;;;39.17;25.92;;;6.90;69.50;;;;;;5996744;23;114651;-81
2022/11/12 02:06:41;;;;;;;37.05;24.75;;;6.90;69.50;;;;;;5995678;23;114776;-81
2022/11/12 02:09:34;;;;;;;36.22;22.63;;;6.90;69.40;;;;;;5975956;23;114821;-80
2022/11/12 02:15:24;;;;;;;40.03;25.35;;;6.80;69.50;;;;;;5978520;23;114738;-80
2022/11/12 02:18:10;;;;;;;41.05;25.42;;;6.70;69.50;;;;;;5975652;23;114491;-80
2022/11/12 02:20:57;;;;;;;41.15;24.88;;;6.80;69.60;;;;;;5975538;23;114249;-80
2022/11/12 02:23:42;;;;;;;40.10;24.50;;;6.70;69.60;;;;;;5995222;23;117150;-80
2022/11/12 02:26:32;;;;;;;38.65;26.60;;;6.70;69.50;;;;;;5974392;23;114680;-80
2022/11/12 02:29:18;;;;;;;39.03;24.65;;;6.70;69.70;;;;;;5997188;23;114057;-81
2022/11/12 02:32:04;;;;;;;40.35;25.65;;;6.70;69.70;;;;;;5976664;23;114220;-81
2022/11/12 02:34:49;;;;;;;39.95;25.88;;;6.70;69.70;;;;;;5994484;23;115478;-81
2022/11/12 02:37:35;;;;;;;40.67;24.40;;;6.70;69.60;;;;;;5996278;23;114816;-81
2022/11/12 02:40:20;;;;;;;36.65;23.38;;;6.70;69.70;;;;;;5951725;23;114368;-81
2022/11/12 02:43:05;;;;;;;38.45;24.50;;;6.70;69.80;;;;;;5996583;23;114308;-81
2022/11/12 02:45:58;;;;;;;38.58;21.88;;;6.70;69.60;;;;;;5995429;23;114798;-82
2022/11/12 02:48:46;;;;;;;41.97;25.08;;;6.70;69.90;;;;;;5978429;23;114564;-81
2022/11/12 02:51:32;;;;;;;39.88;25.35;;;6.70;69.70;;;;;;5980721;23;114463;-81
2022/11/12 02:54:18;;;;;;;39.88;24.67;;;6.70;69.50;;;;;;5976335;23;114307;-81
2022/11/12 02:57:04;;;;;;;43.75;26.08;;;6.70;69.40;;;;;;5974819;23;114874;-82
2022/11/12 02:59:50;;;;;;;38.72;24.30;;;6.60;69.40;;;;;;5974411;23;114657;-82
2022/11/12 03:02:41;;;;;;;41.85;24.92;;;6.60;69.40;;;;;;5996734;23;114262;-82
2022/11/12 03:05:29;;;;;;;42.72;25.73;;;6.60;69.50;;;;;;5971501;23;114689;-82
2022/11/12 03:08:14;;;;;;;41.42;24.55;;;6.60;69.40;;;;;;5995467;23;114911;-82
2022/11/12 03:11:08;;;;;;;36.67;22.98;;;6.50;69.40;;;;;;5974619;23;114681;-81
2022/11/12 03:13:53;;;;;;;34.80;21.47;;;6.50;69.70;;;;;;5976227;23;114288;-81
2022/11/12 03:16:39;;;;;;;32.25;20.48;;;6.50;69.60;;;;;;5951284;23;116276;-81
2022/11/12 03:19:24;;;;;;;34.17;21.30;;;6.50;69.60;;;;;;5974573;23;114778;-81
2022/11/12 03:22:11;;;;;;;33.33;19.88;;;6.40;69.40;;;;;;5995296;23;116310;-81
2022/11/12 03:24:59;;;;;;;33.67;20.35;;;6.50;69.60;;;;;;5996000;23;114524;-81
2022/11/12 03:27:46;;;;;;;32.25;20.52;;;6.40;69.60;;;;;;5995197;23;114315;-81
2022/11/12 03:30:33;;;;;;;33.20;20.63;;;6.40;69.60;;;;;;5972149;23;115365;-81
2022/11/12 03:33:19;;;;;;;33.05;19.88;;;6.40;69.60;;;;;;5994012;23;114888;-81
2022/11/12 03:36:05;;;;;;;30.20;20.02;;;6.40;69.40;;;;;;5995699;23;114118;-80
2022/11/12 03:38:50;;;;;;;31.10;19.95;;;6.40;69.50;;;;;;5996740;23;114267;-81
2022/11/12 03:41:36;;;;;;;32.42;19.80;;;6.40;69.40;;;;;;5994764;23;114789;-81
2022/11/12 03:44:21;;;;;;;32.65;20.95;;;6.40;69.40;;;;;;5993901;23;115119;-82
2022/11/12 03:47:07;;;;;;;34.67;20.75;;;6.40;69.40;;;;;;5974976;23;114321;-82
2022/11/12 03:49:52;;;;;;;30.40;18.23;;;6.30;69.40;;;;;;5974643;23;114215;-82
2022/11/12 03:52:38;;;;;;;27.15;17.52;;;6.30;69.40;;;;;;5973434;23;114959;-81
2022/11/12 03:55:25;;;;;;;29.65;18.95;;;6.20;69.40;;;;;;5973580;23;114603;-81
2022/11/12 03:58:10;;;;;;;27.63;17.05;;;6.20;69.30;;;;;;5993589;23;115131;-82
2022/11/12 04:00:56;;;;;;;24.75;15.60;;;6.20;69.30;;;;;;5824617;23;116275;-81
2022/11/12 04:03:42;;;;;;;22.98;15.63;;;6.20;69.20;;;;;;5957491;23;115026;-81
2022/11/12 04:09:32;;;;;;;24.70;15.15;;;6.10;69.20;;;;;;5967337;23;114294;-81
2022/11/12 04:15:21;;;;;;;26.50;15.82;;;6.10;69.40;;;;;;5966604;23;116365;-81
2022/11/12 04:27:31;;;;;;;25.23;15.05;;;6.00;69.30;;;;;;5948979;23;117420;-81
2022/11/12 04:30:18;;;;;;;23.70;14.18;;;6.00;69.20;;;;;;5945647;23;114635;-81
2022/11/12 04:33:03;;;;;;;22.70;14.68;;;5.90;69.40;;;;;;5967017;23;114221;-81
2022/11/12 04:35:49;;;;;;;25.08;14.65;;;5.90;69.60;;;;;;5967775;23;114511;-81
2022/11/12 04:38:34;;;;;;;24.67;13.98;;;5.90;69.20;;;;;;5966711;23;114887;-81
2022/11/12 04:47:30;;;;;;;23.38;14.30;;;5.70;69.40;;;;;;5967337;23;114267;-81
2022/11/12 04:50:16;;;;;;;22.88;13.95;;;5.80;69.40;;;;;;5945269;23;114929;-80
2022/11/12 04:53:03;;;;;;;18.83;13.02;;;5.80;69.50;;;;;;5966742;23;114613;-81
2022/11/12 04:55:50;;;;;;;20.40;13.75;;;5.70;69.40;;;;;;5967133;23;114277;-81
2022/11/12 04:58:35;;;;;;;21.27;13.13;;;5.70;69.40;;;;;;5966584;23;114559;-81
2022/11/12 05:01:21;;;;;;;23.08;14.25;;;5.70;69.70;;;;;;5965626;23;114992;-81
2022/11/12 05:04:07;;;;;;;22.33;14.20;;;5.70;69.30;;;;;;5966189;23;114572;-82
2022/11/12 05:06:53;;;;;;;26.02;14.27;;;5.70;69.30;;;;;;5967283;23;114286;-81
2022/11/12 05:09:39;;;;;;;24.15;14.98;;;5.70;69.30;;;;;;5967593;23;114115;-81
2022/11/12 05:12:24;;;;;;;28.73;15.18;;;5.60;69.10;;;;;;5967312;23;114830;-82
2022/11/12 05:15:12;;;;;;;25.88;14.55;;;5.60;69.50;;;;;;5946140;23;115184;-82
2022/11/12 05:17:58;;;;;;;22.60;14.10;;;5.60;69.50;;;;;;5947587;23;114421;-81
2022/11/12 05:20:43;;;;;;;21.25;14.18;;;5.60;69.40;;;;;;5924051;23;114307;-81
2022/11/12 05:23:29;;;;;;;22.92;15.35;;;5.60;69.70;;;;;;5967494;23;114893;-81
2022/11/12 05:26:14;;;;;;;20.38;14.48;;;5.60;69.50;;;;;;5967478;23;115215;-81
2022/11/12 05:29:00;;;;;;;23.85;14.95;;;5.60;69.60;;;;;;5966531;23;114553;-81
2022/11/12 05:31:51;;;;;;;25.88;15.13;;;5.60;69.80;;;;;;5948299;23;114530;-81
2022/11/12 05:34:37;;;;;;;23.48;14.02;;;5.60;69.40;;;;;;5966855;23;115421;-81
2022/11/12 05:37:23;;;;;;;22.55;14.30;;;5.60;69.70;;;;;;5945918;23;114593;-81
2022/11/12 05:40:08;;;;;;;22.30;14.48;;;5.60;69.50;;;;;;5968274;23;114458;-81
2022/11/12 05:42:54;;;;;;;19.33;12.82;;;5.60;69.40;;;;;;5968120;23;114266;-81
2022/11/12 05:45:42;;;;;;;21.73;12.68;;;5.60;69.20;;;;;;5946663;23;116920;-81
2022/11/12 05:48:28;;;;;;;24.17;13.23;;;5.60;69.10;;;;;;5967677;23;114760;-82
2022/11/12 05:51:14;;;;;;;21.98;12.82;;;5.50;69.10;;;;;;5928400;23;114171;-81
2022/11/12 05:54:00;;;;;;;24.38;14.57;;;5.50;69.40;;;;;;5947379;23;114272;-81
2022/11/12 05:56:45;;;;;;;21.23;13.85;;;5.40;69.20;;;;;;5945748;23;114910;-81
2022/11/12 05:59:30;;;;;;;21.60;13.45;;;5.40;69.20;;;;;;5926187;23;114567;-82
2022/11/12 06:02:16;;;;;;;20.30;12.63;;;5.40;69.10;;;;;;5968384;23;114264;-81
2022/11/12 06:05:02;;;;;;;17.55;11.98;;;5.40;69.20;;;;;;5968234;23;114779;-82
2022/11/12 06:07:47;;;;;;;19.38;11.77;;;5.40;69.20;;;;;;5967031;23;115466;-81
2022/11/12 06:10:32;;;;;;;17.67;12.23;;;5.40;69.60;;;;;;5967276;23;114664;-80
2022/11/12 06:13:19;;;;;;;19.45;11.82;;;5.40;69.30;;;;;;5946702;23;114093;-81
2022/11/12 06:16:04;;;;;;;20.42;13.02;;;5.40;69.20;;;;;;5968824;23;114238;-81
2022/11/12 06:18:50;;;;;;;24.23;15.15;;;5.40;69.00;;;;;;5945754;23;114744;-81
2022/11/12 06:21:36;;;;;;;21.75;12.60;;;5.40;69.20;;;;;;5945043;23;115231;-81
2022/11/12 06:24:21;;;;;;;19.20;13.38;;;5.40;69.20;;;;;;5945745;23;114379;-79
2022/11/12 06:27:07;;;;;;;21.45;12.80;;;5.50;69.20;;;;;;5968120;23;114024;-80
2022/11/12 06:29:52;;;;;;;23.58;13.55;;;5.50;69.40;;;;;;5965190;23;115960;-81
2022/11/12 06:32:38;;;;;;;17.52;11.48;;;5.60;69.30;;;;;;5945641;23;114842;-80
2022/11/12 06:35:23;;;;;;;20.40;11.63;;;5.60;69.10;;;;;;5967893;23;114554;-80
2022/11/12 06:38:09;;;;;;;22.77;12.82;;;5.70;68.80;;;;;;5946968;23;114261;-83
2022/11/12 06:40:55;;;;;;;20.50;12.73;;;5.70;68.50;;;;;;5966899;23;114926;-81
2022/11/12 06:43:41;;;;;;;17.27;10.57;;;5.70;68.70;;;;;;5944748;23;116776;-82
2022/11/12 06:46:26;;;;;;;21.95;12.13;;;5.70;68.60;;;;;;5945959;23;114272;-81
2022/11/12 06:49:12;;;;;;;18.33;12.07;;;5.80;68.70;;;;;;5967160;23;114523;-81
2022/11/12 06:51:57;;;;;;;20.52;11.75;;;5.80;68.50;;;;;;5965408;23;115381;-81
2022/11/12 06:54:42;;;;;;;23.52;12.35;;;5.90;68.60;;;;;;5966114;23;114597;-81
2022/11/12 06:57:31;;;;;;;19.30;12.30;;;5.90;68.30;;;;;;5946624;23;114311;-80
2022/11/12 07:00:17;;;;;;;18.98;11.50;;;6.00;68.10;;;;;;5967689;23;114617;-81
2022/11/12 07:03:06;;;;;;;19.70;12.18;;;6.00;68.30;;;;;;5966893;23;114739;-82
2022/11/12 07:05:52;;;;;;;16.25;10.70;;;6.10;67.90;;;;;;5945677;23;114654;-81
2022/11/12 07:08:39;;;;;;;18.15;11.52;;;6.10;67.80;;;;;;5968582;23;114343;-83
2022/11/12 07:11:25;;;;;;;21.63;12.05;;;6.10;67.70;;;;;;5946934;23;114386;-80
2022/11/12 07:14:11;;;;;;;17.52;11.93;;;6.10;67.70;;;;;;5966765;23;115208;-81
2022/11/12 07:16:56;;;;;;;17.17;11.68;;;6.20;67.50;;;;;;5966566;23;115230;-81
2022/11/12 07:19:41;;;;;;;27.83;12.52;;;6.20;67.50;;;;;;5946212;23;114488;-82
2022/11/12 07:22:27;;;;;;;19.75;11.50;;;6.20;67.60;;;;;;5967600;23;114057;-81
2022/11/12 07:25:12;;;;;;;19.80;12.40;;;6.30;67.50;;;;;;5966588;23;114920;-80
2022/11/12 07:27:58;;;;;;;20.40;12.45;;;6.40;67.70;;;;;;5945575;23;114938;-83
2022/11/12 07:30:43;;;;;;;22.25;13.02;;;6.60;67.20;;;;;;5946826;23;114166;-81
2022/11/12 07:33:29;;;;;;;22.77;12.63;;;6.70;66.90;;;;;;5967030;23;114178;-81
2022/11/12 07:36:16;;;;;;;25.85;13.13;;;6.80;67.20;;;;;;5966466;23;114852;-82
2022/11/12 07:39:01;;;;;;;25.83;13.27;;;6.90;67.50;;;;;;5948272;23;114656;-82
2022/11/12 07:41:47;;;;;;;24.23;13.73;;;7.00;67.60;;;;;;5970497;23;114105;-81
2022/11/12 07:44:32;;;;;;;24.65;13.77;;;7.10;66.80;;;;;;5970631;23;114264;-81
2022/11/12 07:47:18;;;;;;;20.00;13.10;;;7.20;67.00;;;;;;5965343;23;114916;-82
2022/11/12 07:50:03;;;;;;;23.67;13.93;;;7.30;66.50;;;;;;5965883;23;115098;-81
2022/11/12 07:52:49;;;;;;;27.63;14.30;;;7.40;66.40;;;;;;5946169;23;114163;-80
2022/11/12 07:55:34;;;;;;;26.63;14.38;;;7.60;66.00;;;;;;5966919;23;114754;-81
2022/11/12 07:58:20;;;;;;;25.77;14.57;;;7.70;65.50;;;;;;5964499;23;114879;-81
2022/11/12 08:01:10;;;;;;;25.00;14.07;;;7.70;65.30;;;;;;5965766;23;114505;-81
2022/11/12 08:04:00;;;;;;;23.98;13.60;;;7.90;65.10;;;;;;5945821;23;114910;-79
2022/11/12 08:06:46;;;;;;;23.17;13.82;;;8.00;65.10;;;;;;5967155;23;114426;-82
2022/11/12 08:09:32;;;;;;;20.85;13.45;;;8.10;64.90;;;;;;5967855;23;114842;-81
2022/11/12 08:12:17;;;;;;;24.02;14.18;;;8.20;65.10;;;;;;5965852;23;114637;-81
2022/11/12 08:15:03;;;;;;;24.30;14.27;;;8.40;64.80;;;;;;5966417;23;114276;-81
2022/11/12 08:17:51;;;;;;;24.20;14.23;;;8.50;64.50;;;;;;5967056;23;114494;-82
2022/11/12 08:20:36;;;;;;;27.38;15.45;;;8.60;64.40;;;;;;5963375;23;118536;-81
2022/11/12 08:23:22;;;;;;;29.92;17.20;;;8.70;64.10;;;;;;5920080;23;117448;-80
2022/11/12 08:26:09;;;;;;;28.67;16.90;;;8.80;63.70;;;;;;5964243;23;114309;-80
2022/11/12 08:28:55;;;;;;;27.35;16.27;;;8.90;63.60;;;;;;5940104;23;114282;-82
2022/11/12 08:31:40;;;;;;;30.42;17.27;;;9.10;63.80;;;;;;5964973;23;114991;-81
2022/11/12 08:34:26;;;;;;;31.40;16.17;;;9.20;63.10;;;;;;5964899;23;114696;-81
2022/11/12 08:37:12;;;;;;;29.35;15.32;;;9.20;63.00;;;;;;5965893;23;114238;-82
2022/11/12 08:39:57;;;;;;;28.10;15.38;;;9.30;63.00;;;;;;5945710;23;114298;-81
2022/11/12 08:42:43;;;;;;;31.60;16.08;;;9.40;62.80;;;;;;5965056;23;115397;-82
2022/11/12 08:45:30;;;;;;;34.85;15.38;;;9.50;62.50;;;;;;5965446;23;114582;-82
2022/11/12 08:48:15;;;;;;;28.30;15.65;;;9.60;62.30;;;;;;5946274;23;114607;-81
2022/11/12 08:51:02;;;;;;;25.70;14.63;;;9.70;62.00;;;;;;5965787;23;114131;-82
2022/11/12 08:53:47;;;;;;;25.40;14.57;;;9.70;61.70;;;;;;5945461;23;115016;-81
2022/11/12 08:56:33;;;;;;;33.88;14.93;;;9.70;61.50;;;;;;5965179;23;116499;-81
2022/11/12 08:59:19;;;;;;;31.05;16.88;;;9.80;61.80;;;;;;5937685;23;114329;-81
2022/11/12 09:02:05;;;;;;;29.50;14.65;;;9.90;61.70;;;;;;5939765;23;114332;-81
2022/11/12 09:04:50;;;;;;;30.92;15.45;;;9.90;61.80;;;;;;5938044;23;115618;-81
2022/11/12 09:07:36;;;;;;;30.35;15.35;;;10.10;61.60;;;;;;5938247;23;114623;-82
2022/11/12 09:10:38;;;;;;;26.75;14.80;;;10.20;61.30;;;;;;5935405;23;114628;-82
2022/11/12 09:13:24;;;;;;;28.25;15.60;;;10.20;60.90;;;;;;5937210;23;114521;-81
2022/11/12 09:16:09;;;;;;;30.80;15.23;;;10.30;60.90;;;;;;5938215;23;114987;-81
2022/11/12 09:18:55;;;;;;;27.90;15.35;;;10.40;60.80;;;;;;5937337;23;116869;-81
2022/11/12 09:21:40;;;;;;;32.20;15.85;;;10.50;60.70;;;;;;5939504;23;114464;-83
2022/11/12 09:24:26;;;;;;;32.78;15.57;;;10.60;60.40;;;;;;5941231;23;114462;-81
2022/11/12 09:27:11;;;;;;;35.22;17.70;;;10.70;60.30;;;;;;5938102;23;114946;-81
2022/11/12 09:29:57;;;;;;;26.98;15.80;;;10.80;60.10;;;;;;5936954;23;115090;-81
2022/11/12 09:32:42;;;;;;;36.05;17.23;;;10.90;60.10;;;;;;5939485;23;114558;-82
2022/11/12 09:35:28;;;;;;;34.80;16.85;;;11.00;59.90;;;;;;5938849;23;114251;-81
2022/11/12 09:38:14;;;;;;;30.63;16.25;;;11.10;59.40;;;;;;5937133;23;115862;-81
2022/11/12 09:40:59;;;;;;;28.08;12.70;;;11.20;59.20;;;;;;5956053;23;114590;-80
2022/11/12 09:43:50;;;;;;;25.70;12.43;;;11.20;58.20;;;;;;5938838;23;114332;-83
2022/11/12 09:46:44;;;;;;;19.60;9.95;;;11.30;57.40;;;;;;5955626;23;115039;-83
2022/11/12 09:49:35;;;;;;;15.88;10.18;;;11.30;56.50;;;;;;5937924;23;114964;-82
2022/11/12 09:52:26;;;;;;;15.50;7.35;;;11.30;56.50;;;;;;5963617;23;117720;-83
2022/11/12 09:55:42;;;;;;;12.80;5.93;;;11.40;55.30;;;;;;5959824;23;114284;-82
2022/11/12 09:58:28;;;;;;;10.57;6.30;;;11.40;54.50;;;;;;5940860;23;114330;-83
2022/11/12 10:01:34;;;;;;;11.50;7.13;;;11.30;55.20;;;;;;5945200;23;115032;-83
2022/11/12 10:04:37;;;;;;;14.60;7.35;;;11.40;55.10;;;;;;5948352;23;114512;-83
2022/11/12 10:07:31;;;;;;;11.73;6.93;;;11.40;54.80;;;;;;5947622;23;115420;-83
2022/11/12 10:10:23;;;;;;;14.63;8.48;;;11.50;55.30;;;;;;5965170;23;114681;-83
2022/11/12 10:13:30;;;;;;;13.18;7.88;;;11.60;55.30;;;;;;5945969;23;114840;-84
2022/11/12 10:16:43;;;;;;;14.95;7.78;;;11.70;55.10;;;;;;5965534;23;114728;-83
2022/11/12 10:19:54;;;;;;;17.85;8.82;;;11.80;55.40;;;;;;5967177;23;114248;-83
2022/11/12 10:22:42;;;;;;;14.43;8.13;;;11.80;55.30;;;;;;5950524;23;114230;-82
2022/11/12 10:25:28;;;;;;;15.75;8.60;;;11.80;55.30;;;;;;5966799;23;114880;-82
2022/11/12 10:28:20;;;;;;;16.40;9.23;;;11.90;55.10;;;;;;5946041;23;114617;-82
2022/11/12 10:31:16;;;;;;;15.27;9.00;;;12.00;54.80;;;;;;5967597;23;114541;-82
2022/11/12 10:34:18;;;;;;;15.60;8.20;;;12.00;54.80;;;;;;5966311;23;114698;-82
2022/11/12 10:37:09;;;;;;;15.07;8.68;;;12.00;54.60;;;;;;5945105;23;115450;-83
2022/11/12 10:39:54;;;;;;;13.88;8.73;;;12.00;54.60;;;;;;5922572;23;116151;-83
2022/11/12 10:43:05;;;;;;;16.55;8.73;;;12.00;54.70;;;;;;5946274;23;114410;-83
2022/11/12 10:45:51;;;;;;;16.25;9.45;;;12.10;54.80;;;;;;5967016;23;114447;-83
2022/11/12 10:48:36;;;;;;;14.15;8.70;;;12.10;54.80;;;;;;5966853;23;115072;-83
2022/11/12 10:51:27;;;;;;;16.15;8.55;;;12.10;54.70;;;;;;5967164;23;114591;-82
2022/11/12 10:54:21;;;;;;;14.73;8.63;;;12.20;54.40;;;;;;5947267;23;114085;-82
2022/11/12 10:57:20;;;;;;;17.92;8.90;;;12.10;54.40;;;;;;5968789;23;114347;-82
2022/11/12 11:00:08;;;;;;;14.52;8.55;;;12.20;54.50;;;;;;5966824;23;115443;-82
2022/11/12 11:02:53;;;;;;;15.20;8.68;;;12.10;54.30;;;;;;5945660;23;114590;-82
2022/11/12 11:06:00;;;;;;;15.25;8.65;;;12.10;54.60;;;;;;5922040;23;114297;-82
2022/11/12 11:08:49;;;;;;;15.68;9.07;;;12.20;54.40;;;;;;5947028;23;114290;-82
2022/11/12 11:11:35;;;;;;;14.77;8.57;;;12.20;54.50;;;;;;5946352;23;115673;-82
2022/11/12 11:14:21;;;;;;;13.93;8.90;;;12.20;54.90;;;;;;5945948;23;115439;-82
2022/11/12 11:17:15;;;;;;;15.65;8.70;;;12.20;54.90;;;;;;5967761;23;114386;-82
2022/11/12 11:20:02;;;;;;;14.85;8.57;;;12.20;54.60;;;;;;5947341;23;114274;-82
2022/11/12 11:23:10;;;;;;;13.95;8.40;;;12.00;54.90;;;;;;5966652;23;114905;-81
2022/11/12 11:25:56;;;;;;;17.15;8.45;;;12.10;54.80;;;;;;5966218;23;114793;-82
2022/11/12 11:29:12;;;;;;;13.30;7.97;;;11.90;54.90;;;;;;5946652;23;114083;-82
2022/11/12 11:32:06;;;;;;;12.07;7.97;;;12.00;54.80;;;;;;5946505;23;114163;-82
2022/11/12 11:35:10;;;;;;;11.85;7.80;;;11.90;55.10;;;;;;5965724;23;114828;-83
2022/11/12 11:38:26;;;;;;;13.77;8.07;;;11.90;55.00;;;;;;5946927;23;115389;-83
2022/11/12 11:41:54;;;;;;;12.38;7.25;;;11.90;55.10;;;;;;5967161;23;114877;-82
2022/11/12 11:45:01;;;;;;;16.00;8.90;;;11.90;55.20;;;;;;5923659;23;114558;-82
2022/11/12 11:47:51;;;;;;;12.82;8.52;;;11.90;55.40;;;;;;5948040;23;114941;-82
2022/11/12 11:51:31;;;;;;;12.10;8.45;;;11.90;55.20;;;;;;5966202;23;114543;-83
2022/11/12 11:54:39;;;;;;;14.00;8.13;;;12.00;55.40;;;;;;5953990;23;114363;-83
2022/11/12 11:57:32;;;;;;;17.40;8.40;;;11.90;55.30;;;;;;5951176;23;114478;-82
2022/11/12 12:00:19;;;;;;;13.48;7.72;;;11.90;55.30;;;;;;5945674;23;114928;-82
2022/11/12 12:03:15;;;;;;;12.27;7.00;;;11.90;55.20;;;;;;5965502;23;114962;-82
2022/11/12 12:06:55;;;;;;;11.63;7.68;;;11.90;55.00;;;;;;5945968;23;114507;-81
2022/11/12 12:10:10;;;;;;;15.30;7.15;;;11.90;55.20;;;;;;5911980;23;115650;-80
2022/11/12 12:13:09;;;;;;;13.52;7.07;;;11.90;55.20;;;;;;5965492;23;114724;-82
2022/11/12 12:16:24;;;;;;;12.95;7.40;;;11.90;55.10;;;;;;5963826;23;114999;-81
2022/11/12 12:19:25;;;;;;;13.80;7.22;;;11.90;55.30;;;;;;5966737;23;114365;-83
2022/11/12 12:22:23;;;;;;;13.05;8.20;;;11.90;55.30;;;;;;5964550;23;114401;-84
2022/11/12 12:25:13;;;;;;;13.45;8.02;;;11.90;55.40;;;;;;5922089;23;115417;-81
2022/11/12 12:28:09;;;;;;;12.27;8.13;;;11.90;55.40;;;;;;5945429;23;114597;-81
2022/11/12 12:30:57;;;;;;;15.23;8.75;;;11.90;55.40;;;;;;5945404;23;114274;-82
2022/11/12 12:33:48;;;;;;;14.15;9.48;;;11.90;55.40;;;;;;5902501;23;114285;-82
2022/11/12 12:36:39;;;;;;;12.43;8.18;;;11.90;55.50;;;;;;5945169;23;114848;-82
2022/11/12 12:39:29;;;;;;;13.68;8.52;;;11.90;55.40;;;;;;5946116;23;115371;-82
2022/11/12 12:42:25;;;;;;;16.67;9.02;;;11.90;55.40;;;;;;5945988;23;114458;-82
2022/11/12 12:45:37;;;;;;;16.02;9.50;;;12.00;55.30;;;;;;5947499;23;115551;-81
2022/11/12 12:48:37;;;;;;;15.27;9.15;;;12.00;55.30;;;;;;5944949;23;114847;-81
2022/11/12 12:51:22;;;;;;;16.65;9.95;;;12.00;55.30;;;;;;5945910;23;114747;-82
2022/11/12 12:54:53;;;;;;;15.43;9.18;;;11.90;55.50;;;;;;5945830;23;114321;-81
2022/11/12 12:57:38;;;;;;;13.57;8.45;;;12.00;55.40;;;;;;5922027;23;114442;-81
2022/11/12 13:00:37;;;;;;;16.83;9.65;;;11.90;55.60;;;;;;5935982;23;114863;-82
2022/11/12 13:03:43;;;;;;;18.52;9.18;;;12.00;55.70;;;;;;5936414;23;114657;-82
2022/11/12 13:06:33;;;;;;;18.55;8.95;;;12.00;55.50;;;;;;5936199;23;115828;-82
2022/11/12 13:09:23;;;;;;;16.10;8.68;;;11.90;55.40;;;;;;5940923;23;114469;-82
2022/11/12 13:15:42;;;;;;;13.77;8.57;;;12.00;55.50;;;;;;5936975;23;115307;-82
2022/11/12 13:18:36;;;;;;;15.77;8.27;;;12.00;55.40;;;;;;5937893;23;114263;-81
2022/11/12 13:21:22;;;;;;;17.40;8.45;;;12.00;55.30;;;;;;5937813;23;114493;-82
2022/11/12 13:24:11;;;;;;;16.95;9.00;;;12.00;55.50;;;;;;5936021;23;114893;-82
2022/11/12 13:26:58;;;;;;;14.15;7.20;;;12.00;55.40;;;;;;5955352;23;114753;-82
2022/11/12 13:29:44;;;;;;;12.25;7.72;;;12.00;55.20;;;;;;5956612;23;114325;-82
2022/11/12 13:32:47;;;;;;;11.80;7.38;;;12.00;55.10;;;;;;5957210;23;114475;-81
2022/11/12 13:35:39;;;;;;;11.50;6.93;;;12.00;55.30;;;;;;5936562;23;115479;-81
2022/11/12 13:38:25;;;;;;;10.63;6.10;;;12.00;55.70;;;;;;5957850;23;114699;-82
2022/11/12 13:42:46;;;;;;;9.82;5.47;;;11.90;55.20;;;;;;5940283;23;114366;-80
2022/11/12 13:44:24;;;;;;;7.80;4.47;;;12.00;55.20;;;;;;5953924;23;114225;-82
2022/11/12 13:47:12;;;;;;;7.82;3.20;;;11.90;55.10;;;;;;5938303;23;114986;-81
2022/11/12 13:49:59;;;;;;;7.80;4.13;;;12.00;54.00;;;;;;5937706;23;114640;-82
2022/11/12 13:52:44;;;;;;;8.43;3.50;;;11.90;53.90;;;;;;5969417;23;114120;-81
2022/11/12 13:55:30;;;;;;;7.82;4.03;;;11.90;53.90;;;;;;5941686;23;115124;-80
2022/11/12 13:58:24;;;;;;;9.88;4.35;;;11.90;54.10;;;;;;5939840;23;115000;-82
2022/11/12 14:01:10;;;;;;;8.10;4.50;;;11.90;53.90;;;;;;5967265;23;114125;-81
2022/11/12 14:03:56;;;;;;;7.72;4.05;;;11.80;54.00;;;;;;5946570;23;114795;-83
2022/11/12 14:06:44;;;;;;;10.10;6.57;;;11.80;53.80;;;;;;5967951;23;114472;-82
2022/11/12 14:09:49;;;;;;;10.05;4.80;;;11.80;54.20;;;;;;5967110;23;114835;-81
2022/11/12 14:12:44;;;;;;;;;;;11.80;53.90;;;;;;5967314;23;114703;-81
2022/11/12 14:15:32;;;;;;;12.73;5.55;;;11.70;54.90;;;;;;5943522;23;114090;-81
2022/11/12 14:18:46;;;;;;;9.20;4.70;;;11.70;54.60;;;;;;5968685;23;114298;-81
2022/11/12 14:21:32;;;;;;;8.07;4.20;;;11.70;54.30;;;;;;5965595;23;115816;-81
2022/11/12 14:24:17;;;;;;;9.10;4.43;;;11.60;54.10;;;;;;5947226;23;114778;-81
2022/11/12 14:27:03;;;;;;;10.88;5.53;;;11.60;53.90;;;;;;5924326;23;114473;-81
2022/11/12 14:29:57;;;;;;;10.35;5.65;;;11.50;53.80;;;;;;5968040;23;114777;-81
2022/11/12 14:32:44;;;;;;;12.57;6.38;;;11.60;53.90;;;;;;5945343;23;115123;-81
2022/11/12 14:35:35;;;;;;;10.98;6.32;;;11.50;54.20;;;;;;5966346;23;114519;-80
2022/11/12 14:38:24;;;;;;;11.73;5.75;;;11.50;54.20;;;;;;5944869;23;114358;-81
2022/11/12 14:41:23;;;;;;;14.38;6.30;;;11.50;54.10;;;;;;5946432;23;114599;-80
2022/11/12 14:44:13;;;;;;;9.75;5.30;;;11.50;54.30;;;;;;5944724;23;116277;-81
2022/11/12 14:46:59;;;;;;;11.65;6.25;;;11.40;54.20;;;;;;5945438;23;114606;-81
2022/11/12 14:49:46;;;;;;;11.85;6.15;;;11.40;54.40;;;;;;5926644;23;114469;-81
2022/11/12 14:52:34;;;;;;;9.05;5.43;;;11.30;54.40;;;;;;5947014;23;114416;-80